createdAt,value
2018-08-19T00:02:05.947Z,18.21
2018-08-19T00:04:35.597Z,18.17
2018-08-19T00:07:04.678Z,18.24
2018-08-19T00:09:34.083Z,18.15
2018-08-19T00:12:03.196Z,18.19
2018-08-19T00:14:35.668Z,18.11
2018-08-19T00:17:05.012Z,18.10
2018-08-19T00:19:34.830Z,18.12
2018-08-19T00:22:03.804Z,18.18
2018-08-19T00:24:32.773Z,18.19
2018-08-19T00:27:01.689Z,18.03
2018-08-19T00:29:35.849Z,18.01
2018-08-19T00:32:04.742Z,18.07
2018-08-19T00:34:34.641Z,18.08
2018-08-19T00:37:05.540Z,18.04
2018-08-19T00:39:34.759Z,17.93
2018-08-19T00:42:04.431Z,18.01
2018-08-19T00:44:34.079Z,18.03
2018-08-19T00:47:03.015Z,18.11
2018-08-19T00:49:32.029Z,17.99
2018-08-19T00:52:01.976Z,17.90
2018-08-19T00:54:32.106Z,17.96
2018-08-19T00:57:01.585Z,17.81
2018-08-19T00:59:32.605Z,17.88
2018-08-19T01:02:01.763Z,17.96
2018-08-19T01:04:30.890Z,18.00
2018-08-19T01:07:00.313Z,18.08
2018-08-19T01:09:30.962Z,18.09
2018-08-19T01:12:00.238Z,17.97
2018-08-19T01:14:29.396Z,17.87
2018-08-19T01:16:58.540Z,17.94
2018-08-19T01:19:27.727Z,17.91
2018-08-19T01:21:56.862Z,17.81
2018-08-19T01:24:25.779Z,17.83
2018-08-19T01:26:55.019Z,17.83
2018-08-19T01:29:35.014Z,17.75
2018-08-19T01:32:10.895Z,17.81
2018-08-19T01:34:42.644Z,17.84
2018-08-19T01:37:11.863Z,17.79
2018-08-19T01:39:40.764Z,17.74
2018-08-19T01:42:09.957Z,17.76
2018-08-19T01:44:38.880Z,17.64
2018-08-19T01:47:07.777Z,17.67
2018-08-19T01:49:36.733Z,17.68
2018-08-19T01:52:06.025Z,17.63
2018-08-19T01:54:35.046Z,17.70
2018-08-19T01:57:03.958Z,17.67
2018-08-19T01:59:34.112Z,17.59
2018-08-19T02:02:05.295Z,17.52
2018-08-19T02:04:40.733Z,17.57
2018-08-19T02:07:09.616Z,17.71
2018-08-19T02:09:52.671Z,17.72
2018-08-19T02:12:21.652Z,17.60
2018-08-19T02:14:50.545Z,17.57
2018-08-19T02:17:20.533Z,17.56
2018-08-19T02:19:49.421Z,17.54
2018-08-19T02:22:18.361Z,17.50
2018-08-19T02:24:47.267Z,17.51
2018-08-19T02:27:16.255Z,17.55
2018-08-19T02:29:45.150Z,17.53
2018-08-19T02:32:14.105Z,17.51
2018-08-19T02:34:44.331Z,17.50
2018-08-19T02:37:17.308Z,17.36
2018-08-19T02:39:48.930Z,17.48
2018-08-19T02:42:27.349Z,17.45
2018-08-19T02:45:02.357Z,17.32
2018-08-19T02:47:31.768Z,17.34
2018-08-19T02:50:00.698Z,17.35
2018-08-19T02:52:31.739Z,17.48
2018-08-19T02:55:01.725Z,17.53
2018-08-19T02:57:31.436Z,17.38
2018-08-19T03:00:01.302Z,17.33
2018-08-19T03:02:33.759Z,17.34
2018-08-19T03:05:05.010Z,17.42
2018-08-19T03:07:33.872Z,17.38
2018-08-19T03:10:10.183Z,17.44
2018-08-19T03:12:39.525Z,17.47
2018-08-19T03:15:09.707Z,17.50
2018-08-19T03:17:38.640Z,17.37
2018-08-19T03:20:09.956Z,17.41
2018-08-19T03:22:38.904Z,17.36
2018-08-19T03:25:08.429Z,17.28
2018-08-19T03:27:37.336Z,17.23
2018-08-19T03:30:11.235Z,17.32
2018-08-19T03:32:49.068Z,17.26
2018-08-19T03:35:19.638Z,17.14
2018-08-19T03:37:51.017Z,17.16
2018-08-19T03:40:20.026Z,17.11
2018-08-19T03:42:48.938Z,17.23
2018-08-19T03:45:21.529Z,17.23
2018-08-19T03:47:51.414Z,17.19
2018-08-19T03:50:22.441Z,17.17
2018-08-19T03:52:53.062Z,17.23
2018-08-19T03:55:27.950Z,17.17
2018-08-19T03:58:00.470Z,17.27
2018-08-19T04:00:31.947Z,17.28
2018-08-19T04:03:00.917Z,17.29
2018-08-19T04:05:42.210Z,17.27
2018-08-19T04:08:12.375Z,17.14
2018-08-19T04:10:42.283Z,17.12
2018-08-19T04:13:41.044Z,17.17
2018-08-19T04:16:11.232Z,17.17
2018-08-19T04:18:42.273Z,17.16
2018-08-19T04:21:14.293Z,17.08
2018-08-19T04:23:44.927Z,17.18
2018-08-19T04:26:13.885Z,17.22
2018-08-19T04:28:43.924Z,17.05
2018-08-19T04:31:18.080Z,17.05
2018-08-19T04:33:48.948Z,17.10
2018-08-19T04:36:19.122Z,17.12
2018-08-19T04:38:49.135Z,17.00
2018-08-19T04:41:19.198Z,17.09
2018-08-19T04:43:48.702Z,17.20
2018-08-19T04:46:17.671Z,17.07
2018-08-19T04:48:47.686Z,17.14
2018-08-19T04:51:16.774Z,17.03
2018-08-19T04:53:45.687Z,16.96
2018-08-19T04:56:14.678Z,17.04
2018-08-19T04:58:43.587Z,16.93
2018-08-19T05:01:12.877Z,17.07
2018-08-19T05:03:43.969Z,17.19
2018-08-19T05:06:12.890Z,17.03
2018-08-19T05:08:41.999Z,17.19
2018-08-19T05:11:10.948Z,17.09
2018-08-19T05:13:39.879Z,17.04
2018-08-19T05:16:08.873Z,17.17
2018-08-19T05:18:37.861Z,17.04
2018-08-19T05:21:15.220Z,17.12
2018-08-19T05:23:44.114Z,17.16
2018-08-19T05:26:14.314Z,17.25
2018-08-19T05:28:47.960Z,17.05
2018-08-19T05:31:16.871Z,17.05
2018-08-19T05:33:45.816Z,17.06
2018-08-19T05:36:14.812Z,17.07
2018-08-19T05:38:45.274Z,17.25
2018-08-19T05:41:14.349Z,17.41
2018-08-19T05:43:43.226Z,17.25
2018-08-19T05:46:12.161Z,17.39
2018-08-19T05:48:41.145Z,17.46
2018-08-19T05:51:10.038Z,17.26
2018-08-19T05:53:43.135Z,17.53
2018-08-19T05:56:12.016Z,17.38
2018-08-19T05:58:40.983Z,17.57
2018-08-19T06:01:12.156Z,17.65
2018-08-19T06:03:40.957Z,17.74
2018-08-19T06:06:10.970Z,17.76
2018-08-19T06:08:39.984Z,17.83
2018-08-19T06:11:09.958Z,17.80
2018-08-19T06:13:38.939Z,17.92
2018-08-19T06:16:08.059Z,17.87
2018-08-19T06:18:37.063Z,17.79
2018-08-19T06:21:06.101Z,17.98
2018-08-19T06:23:35.716Z,18.07
2018-08-19T06:26:04.741Z,18.08
2018-08-19T06:28:34.559Z,18.14
2018-08-19T06:31:03.571Z,18.09
2018-08-19T06:33:33.443Z,18.33
2018-08-19T06:36:02.451Z,18.39
2018-08-19T06:38:31.468Z,18.43
2018-08-19T06:41:00.460Z,18.42
2018-08-19T06:43:29.502Z,18.45
2018-08-19T06:45:58.434Z,18.58
2018-08-19T06:48:29.357Z,18.63
2018-08-19T06:50:58.245Z,18.75
2018-08-19T06:53:29.190Z,18.80
2018-08-19T06:55:59.117Z,18.73
2018-08-19T06:58:28.102Z,18.80
2018-08-19T07:00:57.140Z,18.76
2018-08-19T07:03:26.140Z,18.89
2018-08-19T07:06:07.275Z,19.01
2018-08-19T07:08:36.283Z,19.14
2018-08-19T07:11:05.498Z,19.18
2018-08-19T07:13:34.739Z,19.27
2018-08-19T07:16:04.688Z,19.37
2018-08-19T07:18:33.989Z,19.40
2018-08-19T07:21:03.010Z,19.31
2018-08-19T07:23:31.983Z,19.33
2018-08-19T07:26:00.990Z,19.36
2018-08-19T07:28:30.997Z,19.41
2018-08-19T07:31:00.004Z,19.48
2018-08-19T07:33:29.065Z,19.45
2018-08-19T07:35:58.077Z,19.52
2018-08-19T07:38:27.063Z,19.64
2018-08-19T07:40:56.077Z,19.65
2018-08-19T07:43:25.098Z,19.67
2018-08-19T07:45:54.036Z,19.71
2018-08-19T07:48:22.994Z,19.60
2018-08-19T07:50:51.859Z,19.63
2018-08-19T07:53:20.782Z,19.62
2018-08-19T07:55:50.720Z,19.63
2018-08-19T07:58:31.737Z,19.68
2018-08-19T08:01:00.632Z,19.74
2018-08-19T08:03:29.599Z,19.85
2018-08-19T08:05:58.564Z,19.94
2018-08-19T08:08:27.553Z,19.99
2018-08-19T08:10:56.654Z,20.04
2018-08-19T08:13:25.553Z,20.10
2018-08-19T08:15:55.962Z,20.16
2018-08-19T08:18:25.012Z,20.23
2018-08-19T08:20:59.388Z,20.23
2018-08-19T08:23:29.312Z,20.30
2018-08-19T08:25:58.313Z,20.34
2018-08-19T08:28:27.240Z,20.26
2018-08-19T08:30:56.141Z,20.26
2018-08-19T08:33:25.340Z,20.26
2018-08-19T08:35:55.301Z,20.27
2018-08-19T08:38:24.208Z,20.29
2018-08-19T08:40:53.302Z,20.23
2018-08-19T08:43:22.640Z,20.23
2018-08-19T08:45:51.605Z,20.29
2018-08-19T08:48:20.601Z,20.34
2018-08-19T08:50:49.527Z,20.36
2018-08-19T08:53:18.530Z,20.39
2018-08-19T08:55:47.442Z,20.34
2018-08-19T08:58:16.442Z,20.31
2018-08-19T09:00:45.414Z,20.34
2018-08-19T09:03:14.297Z,20.66
2018-08-19T09:05:43.256Z,20.42
2018-08-19T09:08:12.125Z,20.47
2018-08-19T09:10:40.998Z,20.47
2018-08-19T09:13:09.968Z,20.43
2018-08-19T09:15:38.847Z,20.46
2018-08-19T09:18:07.761Z,20.44
2018-08-19T09:20:36.687Z,20.46
2018-08-19T09:23:05.732Z,20.44
2018-08-19T09:25:34.601Z,20.41
2018-08-19T09:28:03.559Z,20.45
2018-08-19T09:30:38.701Z,20.43
2018-08-19T09:33:07.642Z,20.56
2018-08-19T09:35:37.731Z,20.59
2018-08-19T09:38:12.403Z,20.71
2018-08-19T09:40:41.449Z,20.78
2018-08-19T09:43:10.808Z,20.72
2018-08-19T09:45:40.102Z,20.63
2018-08-19T09:48:09.514Z,20.65
2018-08-19T09:50:39.103Z,20.69
2018-08-19T09:53:09.098Z,20.71
2018-08-19T09:55:43.310Z,20.73
2018-08-19T09:58:13.697Z,20.70
2018-08-19T10:00:48.136Z,20.78
2018-08-19T10:03:17.248Z,20.82
2018-08-19T10:05:46.304Z,20.91
2018-08-19T10:08:15.229Z,20.95
2018-08-19T10:10:44.224Z,20.98
2018-08-19T10:13:15.328Z,21.06
2018-08-19T10:15:44.380Z,21.06
2018-08-19T10:18:13.315Z,21.07
2018-08-19T10:20:42.232Z,21.17
2018-08-19T10:23:11.235Z,21.30
2018-08-19T10:25:40.167Z,21.37
2018-08-19T10:28:09.104Z,21.36
2018-08-19T10:30:44.846Z,21.34
2018-08-19T10:33:13.836Z,21.30
2018-08-19T10:35:42.741Z,21.37
2018-08-19T10:38:11.711Z,21.34
2018-08-19T10:40:40.664Z,21.40
2018-08-19T10:43:10.547Z,21.39
2018-08-19T10:45:41.180Z,21.35
2018-08-19T10:48:12.468Z,21.44
2018-08-19T10:50:41.441Z,21.51
2018-08-19T10:53:16.255Z,21.68
2018-08-19T10:55:46.353Z,21.67
2018-08-19T10:58:16.488Z,21.54
2018-08-19T11:00:45.409Z,21.65
2018-08-19T11:03:20.155Z,21.70
2018-08-19T11:05:50.682Z,21.88
2018-08-19T11:08:19.653Z,21.85
2018-08-19T11:10:48.536Z,21.92
2018-08-19T11:13:20.732Z,21.98
2018-08-19T11:15:58.477Z,22.02
2018-08-19T11:18:32.129Z,21.95
2018-08-19T11:21:07.154Z,21.93
2018-08-19T11:23:38.979Z,22.09
2018-08-19T11:26:08.315Z,22.07
2018-08-19T11:29:10.373Z,22.15
2018-08-19T11:31:39.306Z,22.07
2018-08-19T11:34:09.241Z,22.16
2018-08-19T11:36:43.277Z,22.25
2018-08-19T11:39:13.996Z,22.32
2018-08-19T11:41:43.770Z,22.29
2018-08-19T11:44:14.625Z,22.32
2018-08-19T11:46:43.574Z,22.43
2018-08-19T11:49:17.050Z,22.53
2018-08-19T11:51:51.987Z,22.75
2018-08-19T11:54:21.855Z,22.89
2018-08-19T11:56:59.809Z,22.86
2018-08-19T11:59:33.829Z,22.94
2018-08-19T12:02:02.814Z,23.05
2018-08-19T12:04:31.779Z,23.32
2018-08-19T12:07:00.822Z,23.47
2018-08-19T12:09:29.785Z,23.70
2018-08-19T12:11:58.749Z,23.71
2018-08-19T12:14:27.743Z,23.64
2018-08-19T12:16:58.177Z,23.60
2018-08-19T12:19:28.339Z,23.68
2018-08-19T12:21:59.180Z,23.94
2018-08-19T12:24:47.533Z,23.78
2018-08-19T12:27:18.741Z,23.77
2018-08-19T12:29:48.684Z,23.79
2018-08-19T12:32:27.898Z,23.82
2018-08-19T12:34:58.946Z,23.94
2018-08-19T12:37:29.261Z,24.05
2018-08-19T12:39:59.698Z,24.01
2018-08-19T12:42:29.296Z,24.17
2018-08-19T12:45:06.359Z,24.23
2018-08-19T12:47:36.937Z,24.25
2018-08-19T12:50:10.608Z,24.41
2018-08-19T12:52:39.650Z,24.50
2018-08-19T12:55:11.974Z,24.38
2018-08-19T12:57:41.756Z,24.10
2018-08-19T13:00:20.029Z,24.24
2018-08-19T13:02:50.348Z,24.41
2018-08-19T13:05:19.807Z,24.53
2018-08-19T13:07:48.914Z,24.43
2018-08-19T13:10:19.161Z,24.50
2018-08-19T13:12:51.945Z,24.59
2018-08-19T13:15:21.081Z,24.39
2018-08-19T13:17:50.055Z,24.46
2018-08-19T13:20:18.978Z,24.50
2018-08-19T13:22:54.043Z,24.37
2018-08-19T13:25:24.133Z,24.28
2018-08-19T13:27:54.084Z,24.48
2018-08-19T13:30:23.046Z,24.33
2018-08-19T13:32:52.504Z,24.49
2018-08-19T13:35:21.500Z,24.43
2018-08-19T13:37:50.954Z,24.63
2018-08-19T13:40:19.979Z,24.86
2018-08-19T13:42:48.983Z,24.80
2018-08-19T13:45:19.079Z,24.73
2018-08-19T13:47:50.076Z,24.60
2018-08-19T13:50:19.126Z,24.51
2018-08-19T13:52:48.098Z,24.56
2018-08-19T13:55:18.365Z,24.65
2018-08-19T13:57:47.289Z,24.77
2018-08-19T14:00:18.467Z,24.73
2018-08-19T14:02:47.933Z,24.57
2018-08-19T14:05:18.594Z,24.63
2018-08-19T14:07:47.914Z,24.71
2018-08-19T14:10:17.418Z,24.71
2018-08-19T14:12:46.837Z,24.80
2018-08-19T14:15:15.947Z,24.80
2018-08-19T14:17:44.887Z,24.77
2018-08-19T14:20:14.867Z,24.75
2018-08-19T14:22:44.840Z,25.02
2018-08-19T14:25:13.783Z,25.01
2018-08-19T14:27:43.749Z,24.87
2018-08-19T14:30:13.875Z,24.85
2018-08-19T14:32:44.799Z,24.89
2018-08-19T14:35:13.860Z,25.07
2018-08-19T14:37:43.157Z,25.03
2018-08-19T14:40:13.832Z,25.12
2018-08-19T14:42:43.945Z,25.12
2018-08-19T14:45:12.915Z,25.15
2018-08-19T14:47:41.897Z,25.15
2018-08-19T14:50:12.991Z,25.19
2018-08-19T14:52:42.039Z,24.96
2018-08-19T14:55:11.025Z,25.07
2018-08-19T14:57:40.029Z,25.07
2018-08-19T15:00:10.793Z,25.29
2018-08-19T15:02:39.929Z,25.09
2018-08-19T15:05:19.439Z,25.02
2018-08-19T15:07:48.698Z,25.07
2018-08-19T15:10:19.263Z,25.12
2018-08-19T15:12:48.264Z,25.15
2018-08-19T15:15:18.234Z,25.12
2018-08-19T15:17:56.572Z,25.24
2018-08-19T15:20:28.924Z,25.40
2018-08-19T15:23:09.089Z,25.40
2018-08-19T15:25:38.058Z,25.41
2018-08-19T15:28:06.961Z,25.29
2018-08-19T15:30:36.286Z,25.22
2018-08-19T15:33:05.433Z,25.33
2018-08-19T15:35:34.308Z,25.38
2018-08-19T15:38:03.260Z,25.31
2018-08-19T15:40:43.156Z,25.25
2018-08-19T15:43:12.743Z,25.23
2018-08-19T15:45:42.379Z,25.24
2018-08-19T15:48:11.387Z,25.45
2018-08-19T15:50:40.446Z,25.43
2018-08-19T15:53:10.352Z,25.46
2018-08-19T15:55:39.801Z,25.42
2018-08-19T15:58:08.740Z,25.64
2018-08-19T16:00:40.884Z,25.34
2018-08-19T16:03:11.117Z,25.22
2018-08-19T16:05:40.136Z,25.31
2018-08-19T16:08:09.145Z,25.26
2018-08-19T16:10:38.113Z,25.25
2018-08-19T16:13:09.542Z,25.35
2018-08-19T16:15:38.487Z,25.34
2018-08-19T16:18:08.741Z,25.30
2018-08-19T16:20:37.841Z,25.32
2018-08-19T16:23:06.871Z,25.33
2018-08-19T16:25:35.807Z,25.24
2018-08-19T16:28:04.801Z,25.20
2018-08-19T16:30:33.808Z,25.16
2018-08-19T16:33:02.852Z,25.24
2018-08-19T16:35:32.868Z,25.18
2018-08-19T16:38:01.806Z,25.29
2018-08-19T16:40:30.708Z,25.29
2018-08-19T16:42:59.619Z,25.11
2018-08-19T16:45:28.570Z,25.18
2018-08-19T16:47:57.469Z,25.30
2018-08-19T16:50:26.640Z,25.40
2018-08-19T16:52:55.493Z,25.18
2018-08-19T16:55:24.552Z,25.09
2018-08-19T16:57:53.639Z,25.05
2018-08-19T17:00:22.654Z,25.11
2018-08-19T17:02:51.747Z,25.24
2018-08-19T17:05:29.431Z,25.25
2018-08-19T17:07:58.439Z,25.09
2018-08-19T17:10:28.583Z,25.05
2018-08-19T17:12:58.195Z,25.07
2018-08-19T17:15:27.416Z,25.05
2018-08-19T17:17:56.421Z,25.09
2018-08-19T17:20:25.413Z,25.07
2018-08-19T17:22:55.447Z,25.00
2018-08-19T17:25:24.525Z,24.99
2018-08-19T17:27:53.500Z,24.98
2018-08-19T17:30:22.423Z,24.86
2018-08-19T17:32:55.932Z,24.80
2018-08-19T17:35:24.653Z,24.80
2018-08-19T17:37:53.595Z,24.83
2018-08-19T17:40:23.761Z,24.84
2018-08-19T17:42:52.775Z,24.79
2018-08-19T17:45:21.841Z,24.74
2018-08-19T17:47:50.837Z,24.64
2018-08-19T17:50:24.734Z,24.54
2018-08-19T17:52:54.872Z,24.44
2018-08-19T17:55:24.385Z,24.38
2018-08-19T17:57:53.537Z,24.48
2018-08-19T18:00:22.897Z,24.50
2018-08-19T18:02:52.168Z,24.50
2018-08-19T18:05:21.475Z,24.47
2018-08-19T18:07:53.001Z,24.29
2018-08-19T18:10:22.124Z,24.33
2018-08-19T18:12:51.380Z,24.29
2018-08-19T18:15:21.394Z,24.36
2018-08-19T18:18:01.675Z,24.25
2018-08-19T18:20:36.480Z,24.18
2018-08-19T18:23:11.579Z,24.19
2018-08-19T18:25:41.304Z,24.27
2018-08-19T18:28:16.327Z,24.14
2018-08-19T18:30:48.216Z,24.10
2018-08-19T18:33:17.155Z,24.03
2018-08-19T18:35:48.173Z,24.04
2018-08-19T18:38:29.348Z,24.04
2018-08-19T18:40:58.321Z,23.92
2018-08-19T18:43:27.277Z,23.90
2018-08-19T18:45:56.279Z,23.89
2018-08-19T18:48:26.157Z,23.84
2018-08-19T18:50:56.065Z,23.78
2018-08-19T18:53:27.673Z,23.80
2018-08-19T18:55:56.588Z,23.80
2018-08-19T18:58:25.552Z,23.79
2018-08-19T19:00:59.613Z,23.78
2018-08-19T19:03:28.609Z,23.71
2018-08-19T19:05:57.494Z,23.71
2018-08-19T19:08:26.427Z,23.67
2018-08-19T19:11:00.662Z,23.64
2018-08-19T19:13:29.655Z,23.56
2018-08-19T19:15:59.206Z,23.53
2018-08-19T19:18:28.232Z,23.49
2018-08-19T19:21:02.133Z,23.48
2018-08-19T19:23:32.347Z,23.41
2018-08-19T19:26:02.139Z,23.40
2018-08-19T19:28:31.442Z,23.37
2018-08-19T19:31:05.413Z,23.34
2018-08-19T19:33:34.775Z,23.33
2018-08-19T19:36:15.931Z,23.30
2018-08-19T19:39:02.216Z,23.30
2018-08-19T19:41:33.481Z,23.26
2018-08-19T19:44:17.772Z,23.24
2018-08-19T19:46:46.694Z,23.20
2018-08-19T19:49:15.632Z,23.16
2018-08-19T19:51:48.773Z,23.15
2018-08-19T19:54:17.665Z,23.14
2018-08-19T19:56:46.615Z,23.10
2018-08-19T19:59:15.595Z,23.10
2018-08-19T20:01:44.604Z,23.08
2018-08-19T20:04:13.582Z,23.06
2018-08-19T20:06:42.600Z,23.01
2018-08-19T20:09:11.529Z,22.96
2018-08-19T20:11:40.442Z,22.93
2018-08-19T20:14:09.420Z,22.88
2018-08-19T20:16:38.352Z,22.86
2018-08-19T20:19:07.411Z,22.83
2018-08-19T20:21:37.369Z,22.80
2018-08-19T20:24:06.340Z,22.78
2018-08-19T20:26:35.326Z,22.79
2018-08-19T20:29:05.752Z,22.75
2018-08-19T20:31:35.257Z,22.71
2018-08-19T20:34:05.289Z,22.67
2018-08-19T20:36:34.308Z,22.67
2018-08-19T20:39:06.437Z,22.67
2018-08-19T20:41:35.334Z,22.66
2018-08-19T20:44:07.222Z,22.60
2018-08-19T20:46:37.756Z,22.62
2018-08-19T20:49:06.961Z,22.59
2018-08-19T20:51:36.107Z,22.57
2018-08-19T20:54:05.226Z,22.52
2018-08-19T20:56:34.332Z,22.54
2018-08-19T20:59:04.306Z,22.47
2018-08-19T21:01:34.242Z,22.43
2018-08-19T21:04:03.205Z,22.46
2018-08-19T21:06:32.102Z,22.42
2018-08-19T21:09:01.093Z,22.35
2018-08-19T21:11:30.017Z,22.34
2018-08-19T21:13:58.902Z,22.28
2018-08-19T21:16:28.404Z,22.21
2018-08-19T21:18:57.279Z,22.14
2018-08-19T21:21:26.208Z,22.16
2018-08-19T21:23:55.103Z,22.21
2018-08-19T21:26:24.028Z,22.20
2018-08-19T21:28:58.299Z,22.16
2018-08-19T21:31:27.198Z,22.12
2018-08-19T21:33:56.113Z,22.15
2018-08-19T21:36:25.004Z,22.13
2018-08-19T21:38:53.979Z,22.07
2018-08-19T21:41:22.879Z,22.06
2018-08-19T21:43:52.901Z,22.02
2018-08-19T21:46:21.813Z,21.87
2018-08-19T21:48:50.729Z,21.96
2018-08-19T21:51:19.615Z,21.82
2018-08-19T21:53:49.596Z,21.76
2018-08-19T21:56:18.490Z,21.81
2018-08-19T21:58:47.418Z,21.78
2018-08-19T22:01:22.329Z,21.77
2018-08-19T22:03:51.272Z,21.85
2018-08-19T22:06:20.157Z,21.83
2018-08-19T22:08:49.135Z,21.85
2018-08-19T22:11:18.026Z,21.79
2018-08-19T22:13:47.331Z,21.70
2018-08-19T22:16:16.626Z,21.82
2018-08-19T22:18:46.110Z,21.84
2018-08-19T22:21:18.481Z,21.87
2018-08-19T22:23:48.722Z,21.88
2018-08-19T22:26:18.765Z,21.95
2018-08-19T22:29:01.893Z,21.98
2018-08-19T22:31:30.857Z,22.00
2018-08-19T22:33:59.754Z,22.06
2018-08-19T22:36:28.640Z,22.05
2018-08-19T22:38:57.792Z,22.01
2018-08-19T22:41:28.212Z,22.06
2018-08-19T22:43:57.532Z,22.07
2018-08-19T22:46:27.224Z,22.07
2018-08-19T22:48:56.746Z,22.09
2018-08-19T22:51:28.490Z,22.08
2018-08-19T22:53:57.467Z,22.11
2018-08-19T22:56:26.497Z,22.11
2018-08-19T22:58:55.475Z,22.06
2018-08-19T23:01:26.924Z,22.06
2018-08-19T23:03:59.437Z,22.05
2018-08-19T23:06:28.665Z,22.02
2018-08-19T23:08:57.574Z,21.99
2018-08-19T23:11:35.421Z,22.02
2018-08-19T23:14:16.213Z,22.02
2018-08-19T23:16:45.249Z,22.03
2018-08-19T23:19:14.149Z,22.00
2018-08-19T23:21:43.063Z,22.00
2018-08-19T23:24:11.968Z,22.05
2018-08-19T23:26:40.880Z,21.98
2018-08-19T23:29:09.835Z,21.96
2018-08-19T23:31:38.726Z,22.01
2018-08-19T23:34:07.677Z,21.99
2018-08-19T23:36:36.624Z,21.97
2018-08-19T23:39:07.314Z,21.90
2018-08-19T23:41:37.295Z,21.93
2018-08-19T23:44:06.241Z,21.83
2018-08-19T23:46:35.241Z,21.86
2018-08-19T23:49:09.528Z,21.77
2018-08-19T23:51:38.437Z,21.84
2018-08-19T23:54:07.368Z,21.69
2018-08-19T23:56:36.241Z,21.66
2018-08-19T23:59:05.173Z,21.74
